Terminal Aerodrome Forecast
Issued by NWS North Platte, NE

Home | Current Version | Previous Version | Graphics & Text | Print | Product List | Glossary On
Versions: 1 2 3 4 5 6 7 8 9 10 11 12
000
FTUS43 KLBF 271124
TAFVTN
TAF
KVTN 271124Z 2712/2812 19005KT 6SM BR SCT100
      TEMPO 2712/2714 3SM BR
     FM271400 20007KT P6SM SCT250
     FM271800 21009KT P6SM SCT250
     FM280000 14007KT P6SM SKC=

USA.gov is the U.S. government's official web portal to all federal, state and local government web resources and services.